Terminal Aerodrome Forecast
Issued by NWS Charleston, WV

Current Version | Previous Version | Graphics & Text | Print | Product List | Glossary On
Versions: 1 2 3 4 5 6 7 8 9 10 11 12 13 14 15 16 17 18 19 20 21 22 23 24 25 26 27
000
FTUS41 KRLX 231336 AAA
TAFPKB
TAF AMD
KPKB 231336Z 2314/2412 21008KT P6SM VCSH OVC025
     FM231600 22010G20KT 6SM -SHRA VCTS BKN025 OVC035CB
     FM232200 22012G18KT 3SM SHRA VCTS OVC025CB
     FM240300 24009KT 2SM -RA BR OVC007=

USA.gov is the U.S. government's official web portal to all federal, state and local government web resources and services.